sensor_id;sensor_type;location;lat;lon;timestamp;temperature;humidity
67603;DHT22;54417;47.454;18.918;2023-02-15T00:05:11;-2.57;92.83
67603;DHT22;54417;47.454;18.918;2023-02-15T00:10:36;-2.43;92.75
67603;DHT22;54417;47.454;18.918;2023-02-15T00:16:01;-2.58;92.11
67603;DHT22;54417;47.454;18.918;2023-02-15T00:21:25;-2.74;92.04
67603;DHT22;54417;47.454;18.918;2023-02-15T00:26:50;-2.79;92.44
67603;DHT22;54417;47.454;18.918;2023-02-15T00:32:14;-2.88;92.38
67603;DHT22;54417;47.454;18.918;2023-02-15T00:37:38;-2.97;92.53
67603;DHT22;54417;47.454;18.918;2023-02-15T00:43:03;-3.02;93.05
67603;DHT22;54417;47.454;18.918;2023-02-15T00:48:26;-3.06;92.72
67603;DHT22;54417;47.454;18.918;2023-02-15T00:53:50;-3.09;92.92
67603;DHT22;54417;47.454;18.918;2023-02-15T00:59:15;-3.10;92.77
67603;DHT22;54417;47.454;18.918;2023-02-15T01:04:39;-3.19;92.80
67603;DHT22;54417;47.454;18.918;2023-02-15T01:10:04;-3.29;92.64
67603;DHT22;54417;47.454;18.918;2023-02-15T01:15:30;-3.29;92.79
67603;DHT22;54417;47.454;18.918;2023-02-15T01:20:54;-3.27;92.85
67603;DHT22;54417;47.454;18.918;2023-02-15T01:26:18;-3.34;93.08
67603;DHT22;54417;47.454;18.918;2023-02-15T01:31:43;-3.43;93.11
67603;DHT22;54417;47.454;18.918;2023-02-15T01:37:09;-3.50;92.97
67603;DHT22;54417;47.454;18.918;2023-02-15T01:42:33;-3.52;92.74
67603;DHT22;54417;47.454;18.918;2023-02-15T01:48:02;-3.51;92.79
67603;DHT22;54417;47.454;18.918;2023-02-15T01:53:31;-3.54;92.71
67603;DHT22;54417;47.454;18.918;2023-02-15T01:58:57;-3.67;92.89
67603;DHT22;54417;47.454;18.918;2023-02-15T02:04:29;-3.67;93.13
67603;DHT22;54417;47.454;18.918;2023-02-15T02:09:54;-3.58;92.76
67603;DHT22;54417;47.454;18.918;2023-02-15T02:15:22;-3.68;92.41
67603;DHT22;54417;47.454;18.918;2023-02-15T02:21:10;-3.78;92.61
67603;DHT22;54417;47.454;18.918;2023-02-15T02:27:12;-3.86;92.77
67603;DHT22;54417;47.454;18.918;2023-02-15T02:38:51;-3.91;93.42
67603;DHT22;54417;47.454;18.918;2023-02-15T02:44:19;-3.83;92.99
67603;DHT22;54417;47.454;18.918;2023-02-15T02:49:44;-3.96;92.65
67603;DHT22;54417;47.454;18.918;2023-02-15T02:55:13;-4.01;92.57
67603;DHT22;54417;47.454;18.918;2023-02-15T03:00:43;-4.03;92.61
67603;DHT22;54417;47.454;18.918;2023-02-15T03:06:10;-4.14;92.74
67603;DHT22;54417;47.454;18.918;2023-02-15T03:11:37;-4.09;92.79
67603;DHT22;54417;47.454;18.918;2023-02-15T03:17:01;-4.13;92.68
67603;DHT22;54417;47.454;18.918;2023-02-15T03:22:30;-4.22;92.40
67603;DHT22;54417;47.454;18.918;2023-02-15T03:28:00;-4.23;92.47
67603;DHT22;54417;47.454;18.918;2023-02-15T03:33:26;-4.24;92.62
67603;DHT22;54417;47.454;18.918;2023-02-15T03:38:56;-4.26;92.59
67603;DHT22;54417;47.454;18.918;2023-02-15T03:44:25;-4.30;92.96
67603;DHT22;54417;47.454;18.918;2023-02-15T03:49:54;-4.36;92.76
67603;DHT22;54417;47.454;18.918;2023-02-15T03:55:18;-4.41;92.56
67603;DHT22;54417;47.454;18.918;2023-02-15T04:00:49;-4.43;92.62
67603;DHT22;54417;47.454;18.918;2023-02-15T04:06:32;-4.50;92.62
67603;DHT22;54417;47.454;18.918;2023-02-15T04:11:56;-4.43;92.64
67603;DHT22;54417;47.454;18.918;2023-02-15T04:17:21;-4.46;92.74
67603;DHT22;54417;47.454;18.918;2023-02-15T04:22:45;-4.46;92.91
67603;DHT22;54417;47.454;18.918;2023-02-15T04:28:26;-4.49;92.94
67603;DHT22;54417;47.454;18.918;2023-02-15T04:33:51;-4.56;92.69
67603;DHT22;54417;47.454;18.918;2023-02-15T04:39:16;-4.64;92.61
67603;DHT22;54417;47.454;18.918;2023-02-15T04:44:40;-4.72;93.00
67603;DHT22;54417;47.454;18.918;2023-02-15T04:50:06;-4.75;93.13
67603;DHT22;54417;47.454;18.918;2023-02-15T04:55:30;-4.85;93.21
67603;DHT22;54417;47.454;18.918;2023-02-15T05:00:55;-4.85;93.52
67603;DHT22;54417;47.454;18.918;2023-02-15T05:06:20;-4.72;93.80
67603;DHT22;54417;47.454;18.918;2023-02-15T05:11:44;-4.81;93.30
67603;DHT22;54417;47.454;18.918;2023-02-15T05:17:07;-4.85;93.05
67603;DHT22;54417;47.454;18.918;2023-02-15T05:22:33;-4.93;92.98
67603;DHT22;54417;47.454;18.918;2023-02-15T05:27:56;-4.98;92.69
67603;DHT22;54417;47.454;18.918;2023-02-15T05:33:38;-5.13;92.37
67603;DHT22;54417;47.454;18.918;2023-02-15T05:39:04;-5.17;92.91
67603;DHT22;54417;47.454;18.918;2023-02-15T05:44:30;-5.09;92.76
67603;DHT22;54417;47.454;18.918;2023-02-15T05:49:54;-5.08;92.75
67603;DHT22;54417;47.454;18.918;2023-02-15T05:55:19;-5.09;92.61
67603;DHT22;54417;47.454;18.918;2023-02-15T06:00:43;-4.99;92.52
67603;DHT22;54417;47.454;18.918;2023-02-15T06:06:07;-4.95;92.41
67603;DHT22;54417;47.454;18.918;2023-02-15T06:11:32;-4.89;92.37
67603;DHT22;54417;47.454;18.918;2023-02-15T06:16:58;-4.88;92.48
67603;DHT22;54417;47.454;18.918;2023-02-15T06:22:22;-4.68;92.62
67603;DHT22;54417;47.454;18.918;2023-02-15T06:27:47;-4.44;92.99
67603;DHT22;54417;47.454;18.918;2023-02-15T06:33:11;-4.19;92.78
67603;DHT22;54417;47.454;18.918;2023-02-15T15:27:49;5.74;76.24
67603;DHT22;54417;47.454;18.918;2023-02-15T15:39:20;5.28;77.06
67603;DHT22;54417;47.454;18.918;2023-02-15T15:45:08;5.05;77.65
67603;DHT22;54417;47.454;18.918;2023-02-15T15:50:41;4.80;78.63
67603;DHT22;54417;47.454;18.918;2023-02-15T15:56:06;4.52;79.58
67603;DHT22;54417;47.454;18.918;2023-02-15T16:01:38;4.38;80.27
67603;DHT22;54417;47.454;18.918;2023-02-15T16:07:18;4.15;81.15
67603;DHT22;54417;47.454;18.918;2023-02-15T16:12:47;3.84;82.15
67603;DHT22;54417;47.454;18.918;2023-02-15T16:18:16;3.49;82.88
67603;DHT22;54417;47.454;18.918;2023-02-15T16:24:06;3.16;83.73
67603;DHT22;54417;47.454;18.918;2023-02-15T16:29:37;2.88;84.86
67603;DHT22;54417;47.454;18.918;2023-02-15T16:35:02;2.62;85.64
67603;DHT22;54417;47.454;18.918;2023-02-15T16:40:48;2.48;86.99
67603;DHT22;54417;47.454;18.918;2023-02-15T16:46:16;2.40;86.61
67603;DHT22;54417;47.454;18.918;2023-02-15T16:51:45;2.29;87.28
67603;DHT22;54417;47.454;18.918;2023-02-15T16:57:19;2.34;87.32
67603;DHT22;54417;47.454;18.918;2023-02-15T17:02:53;2.01;87.27
67603;DHT22;54417;47.454;18.918;2023-02-15T17:08:24;1.77;88.41
67603;DHT22;54417;47.454;18.918;2023-02-15T17:14:13;1.58;88.41
67603;DHT22;54417;47.454;18.918;2023-02-15T17:19:46;1.40;88.86
67603;DHT22;54417;47.454;18.918;2023-02-15T17:25:18;1.17;89.23
67603;DHT22;54417;47.454;18.918;2023-02-15T17:30:43;1.03;89.51
67603;DHT22;54417;47.454;18.918;2023-02-15T17:36:11;0.92;89.88
67603;DHT22;54417;47.454;18.918;2023-02-15T17:41:37;1.16;90.08
67603;DHT22;54417;47.454;18.918;2023-02-15T17:47:01;1.40;89.73
67603;DHT22;54417;47.454;18.918;2023-02-15T17:52:28;1.30;88.58
67603;DHT22;54417;47.454;18.918;2023-02-15T17:57:54;1.28;89.63
67603;DHT22;54417;47.454;18.918;2023-02-15T18:03:18;0.82;88.93
67603;DHT22;54417;47.454;18.918;2023-02-15T18:08:59;0.48;89.72
67603;DHT22;54417;47.454;18.918;2023-02-15T18:14:41;0.20;89.91
67603;DHT22;54417;47.454;18.918;2023-02-15T18:20:10;-0.01;90.07
67603;DHT22;54417;47.454;18.918;2023-02-15T18:25:39;-0.24;90.22
67603;DHT22;54417;47.454;18.918;2023-02-15T18:31:05;-0.37;90.35
67603;DHT22;54417;47.454;18.918;2023-02-15T18:36:31;-0.48;90.39
67603;DHT22;54417;47.454;18.918;2023-02-15T18:41:55;-0.64;90.40
67603;DHT22;54417;47.454;18.918;2023-02-15T18:47:21;-0.80;90.47
67603;DHT22;54417;47.454;18.918;2023-02-15T18:52:46;-0.93;90.47
67603;DHT22;54417;47.454;18.918;2023-02-15T18:58:15;-1.01;90.47
67603;DHT22;54417;47.454;18.918;2023-02-15T19:03:44;-1.20;90.48
67603;DHT22;54417;47.454;18.918;2023-02-15T19:09:12;-1.33;91.05
67603;DHT22;54417;47.454;18.918;2023-02-15T19:14:36;-1.41;91.32
67603;DHT22;54417;47.454;18.918;2023-02-15T19:20:02;-1.48;91.01
67603;DHT22;54417;47.454;18.918;2023-02-15T19:25:28;-1.64;91.27
67603;DHT22;54417;47.454;18.918;2023-02-15T19:30:52;-1.68;91.11
67603;DHT22;54417;47.454;18.918;2023-02-15T19:36:18;-1.78;91.24
67603;DHT22;54417;47.454;18.918;2023-02-15T19:41:44;-1.89;91.88
67603;DHT22;54417;47.454;18.918;2023-02-15T19:47:10;-1.90;92.25
67603;DHT22;54417;47.454;18.918;2023-02-15T19:52:36;-1.97;91.99
67603;DHT22;54417;47.454;18.918;2023-02-15T19:58:01;-2.05;91.78
67603;DHT22;54417;47.454;18.918;2023-02-15T20:03:25;-2.05;91.69
67603;DHT22;54417;47.454;18.918;2023-02-15T20:08:50;-2.11;91.49
67603;DHT22;54417;47.454;18.918;2023-02-15T20:14:14;-2.27;91.38
67603;DHT22;54417;47.454;18.918;2023-02-15T20:19:37;-2.37;92.34
67603;DHT22;54417;47.454;18.918;2023-02-15T20:25:04;-2.32;92.72
67603;DHT22;54417;47.454;18.918;2023-02-15T20:30:30;-2.41;92.56
67603;DHT22;54417;47.454;18.918;2023-02-15T20:35:54;-2.51;92.52
67603;DHT22;54417;47.454;18.918;2023-02-15T20:41:20;-2.54;92.31
67603;DHT22;54417;47.454;18.918;2023-02-15T20:47:01;-2.51;92.14
67603;DHT22;54417;47.454;18.918;2023-02-15T20:52:25;-2.54;92.12
67603;DHT22;54417;47.454;18.918;2023-02-15T20:57:50;-2.61;91.99
67603;DHT22;54417;47.454;18.918;2023-02-15T21:03:21;-2.72;92.35
67603;DHT22;54417;47.454;18.918;2023-02-15T21:08:45;-2.72;92.14
67603;DHT22;54417;47.454;18.918;2023-02-15T21:14:17;-2.79;92.14
67603;DHT22;54417;47.454;18.918;2023-02-15T21:19:41;-2.89;92.42
67603;DHT22;54417;47.454;18.918;2023-02-15T21:25:05;-2.91;92.53
67603;DHT22;54417;47.454;18.918;2023-02-15T21:30:30;-2.86;92.45
67603;DHT22;54417;47.454;18.918;2023-02-15T21:35:55;-2.96;92.40
67603;DHT22;54417;47.454;18.918;2023-02-15T21:41:21;-2.97;92.35
67603;DHT22;54417;47.454;18.918;2023-02-15T21:47:05;-3.09;92.35
67603;DHT22;54417;47.454;18.918;2023-02-15T21:52:46;-3.04;93.38
67603;DHT22;54417;47.454;18.918;2023-02-15T21:58:17;-3.06;93.58
67603;DHT22;54417;47.454;18.918;2023-02-15T22:03:43;-3.14;93.21
67603;DHT22;54417;47.454;18.918;2023-02-15T22:09:13;-3.27;92.88
67603;DHT22;54417;47.454;18.918;2023-02-15T22:14:39;-3.21;93.83
67603;DHT22;54417;47.454;18.918;2023-02-15T22:20:12;-3.29;93.63
67603;DHT22;54417;47.454;18.918;2023-02-15T22:25:36;-3.34;93.55
67603;DHT22;54417;47.454;18.918;2023-02-15T22:31:00;-3.29;93.22
67603;DHT22;54417;47.454;18.918;2023-02-15T22:36:28;-3.31;93.09
67603;DHT22;54417;47.454;18.918;2023-02-15T22:41:53;-3.37;93.09
67603;DHT22;54417;47.454;18.918;2023-02-15T22:47:19;-3.51;92.97
67603;DHT22;54417;47.454;18.918;2023-02-15T22:52:45;-3.62;93.27
67603;DHT22;54417;47.454;18.918;2023-02-15T22:58:14;-3.58;93.42
67603;DHT22;54417;47.454;18.918;2023-02-15T23:03:39;-3.58;93.50
67603;DHT22;54417;47.454;18.918;2023-02-15T23:09:04;-3.67;93.32
67603;DHT22;54417;47.454;18.918;2023-02-15T23:14:32;-3.71;93.36
67603;DHT22;54417;47.454;18.918;2023-02-15T23:19:56;-3.74;93.31
67603;DHT22;54417;47.454;18.918;2023-02-15T23:25:21;-3.82;93.07
67603;DHT22;54417;47.454;18.918;2023-02-15T23:30:49;-3.72;93.15
67603;DHT22;54417;47.454;18.918;2023-02-15T23:36:25;-3.82;93.01
67603;DHT22;54417;47.454;18.918;2023-02-15T23:41:51;-3.79;92.75
67603;DHT22;54417;47.454;18.918;2023-02-15T23:47:20;-4.05;92.50
67603;DHT22;54417;47.454;18.918;2023-02-15T23:53:04;-4.10;93.04
67603;DHT22;54417;47.454;18.918;2023-02-15T23:58:35;-3.95;93.75
